createdAt,value
2018-12-03T00:01:43.575Z,10.30
2018-12-03T00:04:17.234Z,10.30
2018-12-03T00:06:45.549Z,10.20
2018-12-03T00:09:14.055Z,10.20
2018-12-03T00:11:42.532Z,10.30
2018-12-03T00:14:10.961Z,10.30
2018-12-03T00:16:39.380Z,10.30
2018-12-03T00:19:08.072Z,10.30
2018-12-03T00:21:36.609Z,10.30
2018-12-03T00:24:05.445Z,10.30
2018-12-03T00:26:33.693Z,10.30
2018-12-03T00:29:02.026Z,10.30
2018-12-03T00:31:30.313Z,10.30
2018-12-03T00:33:58.580Z,10.30
2018-12-03T00:36:26.832Z,10.30
2018-12-03T00:38:55.213Z,10.30
2018-12-03T00:41:23.501Z,10.20
2018-12-03T00:43:51.828Z,10.30
2018-12-03T00:46:20.013Z,10.20
2018-12-03T00:48:48.242Z,10.20
2018-12-03T00:51:16.510Z,10.30
2018-12-03T00:53:44.741Z,10.20
2018-12-03T00:56:13.004Z,10.20
2018-12-03T00:58:41.270Z,10.20
2018-12-03T01:01:09.633Z,10.20
2018-12-03T01:03:37.897Z,10.30
2018-12-03T01:06:06.603Z,10.30
2018-12-03T01:08:34.901Z,10.30
2018-12-03T01:11:03.152Z,10.20
2018-12-03T01:13:31.395Z,10.30
2018-12-03T01:15:59.629Z,10.20
2018-12-03T01:18:27.862Z,10.30
2018-12-03T01:20:56.133Z,10.30
2018-12-03T01:23:24.391Z,10.30
2018-12-03T01:25:52.691Z,10.40
2018-12-03T01:28:20.952Z,10.50
2018-12-03T01:30:49.156Z,10.60
2018-12-03T01:33:17.386Z,10.70
2018-12-03T01:35:45.649Z,10.70
2018-12-03T01:38:13.926Z,10.70
2018-12-03T01:40:42.144Z,10.70
2018-12-03T01:43:10.377Z,10.70
2018-12-03T01:45:38.687Z,10.80
2018-12-03T01:48:06.930Z,10.80
2018-12-03T01:50:35.182Z,10.80
2018-12-03T01:53:03.440Z,10.70
2018-12-03T01:55:31.666Z,10.70
2018-12-03T01:58:00.317Z,10.70
2018-12-03T02:00:28.573Z,10.70
2018-12-03T02:02:56.778Z,10.70
2018-12-03T02:05:25.073Z,10.60
2018-12-03T02:07:53.340Z,10.50
2018-12-03T02:10:21.929Z,10.50
2018-12-03T02:12:50.173Z,10.40
2018-12-03T02:15:18.449Z,10.40
2018-12-03T02:17:46.752Z,10.40
2018-12-03T02:20:17.264Z,10.30
2018-12-03T02:22:45.590Z,10.30
2018-12-03T02:25:13.870Z,10.30
2018-12-03T02:27:42.219Z,10.20
2018-12-03T02:30:14.665Z,10.30
2018-12-03T02:32:43.080Z,10.20
2018-12-03T02:35:12.955Z,10.30
2018-12-03T02:37:41.194Z,10.30
2018-12-03T02:40:12.692Z,10.40
2018-12-03T02:42:40.885Z,10.30
2018-12-03T02:45:10.259Z,10.30
2018-12-03T02:47:39.142Z,10.40
2018-12-03T02:50:08.909Z,10.50
2018-12-03T02:52:37.121Z,10.50
2018-12-03T02:55:06.895Z,10.50
2018-12-03T02:57:35.098Z,10.50
2018-12-03T03:00:04.423Z,10.60
2018-12-03T03:02:32.742Z,10.60
2018-12-03T03:05:01.063Z,10.60
2018-12-03T03:07:29.289Z,10.50
2018-12-03T03:09:57.525Z,10.50
2018-12-03T03:12:25.791Z,10.50
2018-12-03T03:14:54.037Z,10.40
2018-12-03T03:17:22.245Z,10.40
2018-12-03T03:19:50.586Z,10.40
2018-12-03T03:22:18.830Z,10.50
2018-12-03T03:24:47.086Z,10.50
2018-12-03T03:27:15.307Z,10.50
2018-12-03T03:29:44.228Z,10.50
2018-12-03T03:32:12.479Z,10.50
2018-12-03T03:34:40.751Z,10.50
2018-12-03T03:37:08.997Z,10.60
2018-12-03T03:39:37.256Z,10.60
2018-12-03T03:42:05.761Z,10.60
2018-12-03T03:44:34.042Z,10.60
2018-12-03T03:47:02.302Z,10.60
2018-12-03T03:49:30.536Z,10.60
2018-12-03T03:51:58.788Z,10.60
2018-12-03T03:54:26.994Z,10.60
2018-12-03T03:56:55.247Z,10.60
2018-12-03T03:59:23.546Z,10.60
2018-12-03T04:01:51.743Z,10.50
2018-12-03T04:04:20.620Z,10.50
2018-12-03T04:06:48.932Z,10.50
2018-12-03T04:09:17.180Z,10.50
2018-12-03T04:11:45.488Z,10.50
2018-12-03T04:14:13.746Z,10.50
2018-12-03T04:16:42.006Z,10.50
2018-12-03T04:19:10.276Z,10.50
2018-12-03T04:21:38.500Z,10.50
2018-12-03T04:24:06.824Z,10.50
2018-12-03T04:26:35.066Z,10.60
2018-12-03T04:29:03.341Z,10.60
2018-12-03T04:31:31.565Z,10.60
2018-12-03T04:33:59.856Z,10.60
2018-12-03T04:36:28.049Z,10.50
2018-12-03T04:38:56.265Z,10.50
2018-12-03T04:41:24.497Z,10.50
2018-12-03T04:43:52.765Z,10.50
2018-12-03T04:46:21.063Z,10.50
2018-12-03T04:48:49.366Z,10.50
2018-12-03T04:51:17.640Z,10.50
2018-12-03T04:53:45.862Z,10.50
2018-12-03T04:56:14.340Z,10.40
2018-12-03T04:58:42.489Z,10.40
2018-12-03T05:03:49.076Z,10.40
2018-12-03T05:06:17.217Z,10.40
2018-12-03T05:08:45.346Z,10.40
2018-12-03T05:11:13.506Z,10.50
2018-12-03T05:13:41.640Z,10.50
2018-12-03T05:16:09.788Z,10.50
2018-12-03T05:18:37.917Z,10.50
2018-12-03T05:21:06.064Z,10.50
2018-12-03T05:23:34.188Z,10.50
2018-12-03T05:26:02.332Z,10.60
2018-12-03T05:28:30.459Z,10.60
2018-12-03T05:30:58.658Z,10.60
2018-12-03T05:33:26.862Z,10.60
2018-12-03T05:35:55.039Z,10.70
2018-12-03T05:38:23.236Z,10.70
2018-12-03T05:40:51.425Z,10.70
2018-12-03T05:43:20.681Z,10.80
2018-12-03T05:45:48.906Z,10.80
2018-12-03T05:48:17.113Z,10.80
2018-12-03T05:50:51.710Z,10.80
2018-12-03T05:53:19.893Z,10.80
2018-12-03T05:55:48.474Z,10.80
2018-12-03T05:58:16.738Z,10.80
2018-12-03T06:00:45.042Z,10.80
2018-12-03T06:03:20.525Z,10.80
2018-12-03T06:05:48.846Z,10.80
2018-12-03T06:08:17.189Z,10.80
2018-12-03T06:10:45.358Z,10.80
2018-12-03T06:13:14.222Z,10.80
2018-12-03T06:15:42.511Z,10.80
2018-12-03T06:18:10.701Z,10.70
2018-12-03T06:20:38.903Z,10.70
2018-12-03T06:23:07.090Z,10.70
2018-12-03T06:25:35.300Z,10.50
2018-12-03T06:28:03.491Z,10.50
2018-12-03T06:30:31.693Z,10.40
2018-12-03T06:32:59.848Z,10.50
2018-12-03T06:35:28.297Z,10.50
2018-12-03T06:37:56.687Z,10.50
2018-12-03T06:40:26.344Z,10.50
2018-12-03T06:42:54.691Z,10.50
2018-12-03T06:45:23.662Z,10.60
2018-12-03T06:48:00.530Z,10.50
2018-12-03T06:50:28.832Z,10.50
2018-12-03T06:52:57.056Z,10.40
2018-12-03T06:55:25.308Z,10.40
2018-12-03T06:57:53.552Z,10.40
2018-12-03T07:00:23.007Z,10.40
2018-12-03T07:02:51.213Z,10.40
2018-12-03T07:05:19.520Z,10.40
2018-12-03T07:07:49.060Z,10.50
2018-12-03T07:10:18.388Z,10.60
2018-12-03T07:12:50.306Z,10.60
2018-12-03T07:15:19.715Z,10.60
2018-12-03T07:17:48.450Z,10.60
2018-12-03T07:20:16.702Z,10.70
2018-12-03T07:22:44.939Z,10.70
2018-12-03T07:25:13.227Z,10.80
2018-12-03T07:27:41.498Z,10.70
2018-12-03T07:30:14.137Z,10.70
2018-12-03T07:32:42.640Z,10.70
2018-12-03T07:35:10.864Z,10.70
2018-12-03T07:37:39.111Z,10.70
2018-12-03T07:40:08.880Z,10.70
2018-12-03T07:42:37.223Z,10.70
2018-12-03T07:45:09.087Z,10.80
2018-12-03T07:47:37.329Z,10.80
2018-12-03T07:50:08.037Z,10.80
2018-12-03T07:52:36.776Z,10.80
2018-12-03T07:55:06.386Z,10.80
2018-12-03T07:57:34.704Z,10.80
2018-12-03T08:00:02.935Z,10.80
2018-12-03T08:02:31.161Z,10.80
2018-12-03T08:04:59.417Z,10.80
2018-12-03T08:07:27.684Z,10.80
2018-12-03T08:09:55.977Z,10.90
2018-12-03T08:12:24.245Z,11.00
2018-12-03T08:14:52.533Z,11.00
2018-12-03T08:17:20.889Z,11.20
2018-12-03T08:19:49.136Z,11.20
2018-12-03T08:22:17.416Z,11.20
2018-12-03T08:24:45.716Z,11.30
2018-12-03T08:27:14.009Z,11.40
2018-12-03T08:29:42.246Z,11.40
2018-12-03T08:32:10.658Z,11.40
2018-12-03T08:34:39.044Z,11.50
2018-12-03T08:37:07.288Z,11.60
2018-12-03T08:39:35.553Z,11.50
2018-12-03T08:42:03.954Z,11.60
2018-12-03T08:44:32.295Z,11.70
2018-12-03T08:47:07.798Z,11.70
2018-12-03T08:49:36.132Z,11.80
2018-12-03T08:52:04.817Z,12.10
2018-12-03T08:54:33.354Z,12.90
2018-12-03T08:57:01.810Z,14.00
2018-12-03T08:59:33.740Z,14.30
2018-12-03T09:02:02.210Z,14.20
2018-12-03T09:04:32.253Z,13.90
2018-12-03T09:07:00.669Z,13.60
2018-12-03T09:09:29.137Z,13.90
2018-12-03T09:11:57.604Z,15.00
2018-12-03T09:14:30.716Z,15.30
2018-12-03T09:17:02.429Z,14.90
2018-12-03T09:19:27.692Z,14.30
2018-12-03T09:21:56.169Z,14.00
2018-12-03T09:24:25.557Z,13.70
2018-12-03T09:26:54.030Z,13.40
2018-12-03T09:29:22.585Z,13.20
2018-12-03T09:31:51.076Z,13.00
2018-12-03T09:34:19.672Z,12.90
2018-12-03T09:36:48.166Z,12.90
2018-12-03T09:39:17.669Z,12.90
2018-12-03T09:41:47.148Z,12.80
2018-12-03T09:44:15.406Z,13.00
2018-12-03T09:46:43.728Z,13.30
2018-12-03T09:49:12.030Z,13.90
2018-12-03T09:51:40.263Z,14.20
2018-12-03T09:54:09.800Z,14.80
2018-12-03T09:56:39.255Z,15.20
2018-12-03T09:59:10.205Z,15.40
2018-12-03T10:01:38.525Z,15.60
2018-12-03T10:04:14.960Z,15.40
2018-12-03T10:06:43.158Z,15.50
2018-12-03T10:09:12.479Z,15.10
2018-12-03T10:11:40.753Z,15.20
2018-12-03T10:14:14.892Z,14.70
2018-12-03T10:16:40.681Z,14.40
2018-12-03T10:19:08.611Z,14.10
2018-12-03T10:21:36.896Z,14.00
2018-12-03T10:24:10.583Z,14.00
2018-12-03T10:26:38.847Z,14.10
2018-12-03T10:29:08.567Z,14.10
2018-12-03T10:31:36.758Z,14.20
2018-12-03T10:34:08.359Z,14.20
2018-12-03T10:36:36.734Z,14.10
2018-12-03T10:39:09.949Z,14.00
2018-12-03T10:41:38.627Z,14.00
2018-12-03T10:44:06.887Z,14.00
2018-12-03T10:46:35.123Z,13.90
2018-12-03T10:49:06.456Z,13.90
2018-12-03T10:51:34.698Z,13.90
2018-12-03T10:54:02.957Z,13.80
2018-12-03T10:56:31.162Z,13.80
2018-12-03T10:58:59.410Z,13.90
2018-12-03T11:01:31.840Z,13.90
2018-12-03T11:04:00.285Z,13.90
2018-12-03T11:06:28.532Z,14.00
2018-12-03T11:08:56.769Z,14.00
2018-12-03T11:11:24.966Z,14.00
2018-12-03T11:13:53.178Z,14.10
2018-12-03T11:16:25.934Z,14.00
2018-12-03T11:18:55.220Z,14.00
2018-12-03T11:21:23.581Z,13.90
2018-12-03T11:23:51.798Z,13.90
2018-12-03T11:26:20.075Z,13.90
2018-12-03T11:28:51.775Z,13.90
2018-12-03T11:31:26.876Z,13.80
2018-12-03T11:33:55.124Z,13.90
2018-12-03T11:36:30.245Z,13.80
2018-12-03T11:40:03.874Z,13.80
2018-12-03T11:42:34.816Z,13.80
2018-12-03T11:45:03.068Z,13.70
2018-12-03T11:47:31.369Z,13.70
2018-12-03T11:49:59.591Z,13.70
2018-12-03T11:52:27.795Z,13.70
2018-12-03T11:54:56.040Z,13.80
2018-12-03T11:57:24.277Z,13.70
2018-12-03T11:59:52.519Z,13.70
2018-12-03T12:02:20.745Z,13.70
2018-12-03T12:04:48.976Z,13.80
2018-12-03T12:07:17.168Z,13.70
2018-12-03T12:09:45.379Z,13.70
2018-12-03T12:12:13.609Z,13.70
2018-12-03T12:14:41.806Z,13.60
2018-12-03T12:17:10.045Z,13.60
2018-12-03T12:19:38.259Z,13.70
2018-12-03T12:22:06.734Z,13.70
2018-12-03T12:24:35.791Z,13.60
2018-12-03T12:27:03.268Z,13.60
2018-12-03T12:29:31.513Z,13.70
2018-12-03T12:31:59.717Z,13.80
2018-12-03T12:34:28.025Z,13.80
2018-12-03T12:36:56.237Z,13.70
2018-12-03T12:39:24.503Z,13.70
2018-12-03T12:41:52.698Z,13.60
2018-12-03T12:44:20.933Z,13.60
2018-12-03T12:46:51.014Z,13.50
2018-12-03T12:49:19.293Z,13.50
2018-12-03T12:51:51.627Z,13.50
2018-12-03T12:54:15.824Z,13.50
2018-12-03T12:56:44.023Z,13.50
2018-12-03T12:59:12.333Z,13.50
2018-12-03T13:01:40.632Z,13.50
2018-12-03T13:04:08.928Z,13.60
2018-12-03T13:06:37.219Z,13.50
2018-12-03T13:09:08.830Z,13.50
2018-12-03T13:11:37.324Z,13.60
2018-12-03T13:14:07.056Z,13.60
2018-12-03T13:16:35.313Z,13.50
2018-12-03T13:19:03.525Z,13.50
2018-12-03T13:21:31.816Z,13.40
2018-12-03T13:23:59.992Z,13.40
2018-12-03T13:26:29.045Z,13.40
2018-12-03T13:28:57.525Z,13.40
2018-12-03T13:31:25.896Z,13.40
2018-12-03T13:33:54.623Z,13.60
2018-12-03T13:36:22.812Z,13.70
2018-12-03T13:38:51.061Z,13.60
2018-12-03T13:41:19.292Z,13.60
2018-12-03T13:43:47.497Z,13.70
2018-12-03T13:46:15.774Z,13.70
2018-12-03T13:48:43.955Z,13.70
2018-12-03T13:51:12.156Z,13.80
2018-12-03T13:53:40.325Z,13.70
2018-12-03T13:56:08.601Z,13.70
2018-12-03T13:58:36.799Z,13.60
2018-12-03T14:01:05.041Z,13.50
2018-12-03T14:03:35.136Z,13.50
2018-12-03T14:06:37.603Z,13.40
2018-12-03T14:09:19.199Z,13.40
2018-12-03T14:11:59.483Z,13.30
2018-12-03T14:14:43.610Z,13.20
2018-12-03T14:18:21.023Z,13.10
2018-12-03T14:20:50.349Z,13.00
2018-12-03T14:23:22.070Z,12.90
2018-12-03T14:25:50.284Z,12.90
2018-12-03T14:28:18.449Z,12.80
2018-12-03T14:30:46.652Z,12.70
2018-12-03T14:33:14.845Z,12.60
2018-12-03T14:35:43.071Z,12.60
2018-12-03T14:38:11.261Z,12.50
2018-12-03T14:40:39.456Z,12.50
2018-12-03T14:43:07.652Z,12.50
2018-12-03T14:45:35.813Z,12.50
2018-12-03T14:48:04.205Z,12.50
2018-12-03T14:50:32.443Z,12.40
2018-12-03T14:53:00.662Z,12.40
2018-12-03T14:55:28.836Z,12.30
2018-12-03T14:57:57.022Z,12.30
2018-12-03T15:00:25.219Z,12.30
2018-12-03T15:02:53.587Z,12.40
2018-12-03T15:05:22.025Z,12.40
2018-12-03T15:07:50.316Z,12.40
2018-12-03T15:10:18.505Z,12.30
2018-12-03T15:12:46.731Z,12.20
2018-12-03T15:15:14.941Z,12.20
2018-12-03T15:17:44.560Z,12.20
2018-12-03T15:20:12.742Z,12.20
2018-12-03T15:22:41.028Z,12.20
2018-12-03T15:25:11.535Z,12.10
2018-12-03T15:27:39.740Z,12.10
2018-12-03T15:30:09.405Z,12.10
2018-12-03T15:32:37.693Z,12.10
2018-12-03T15:35:07.915Z,12.10
2018-12-03T15:37:36.117Z,12.10
2018-12-03T15:40:07.550Z,12.20
2018-12-03T15:42:35.886Z,12.30
2018-12-03T15:45:05.520Z,12.30
2018-12-03T15:47:33.729Z,12.30
2018-12-03T15:50:01.944Z,12.30
2018-12-03T15:52:30.133Z,12.20
2018-12-03T15:54:58.312Z,12.20
2018-12-03T15:57:27.048Z,12.20
2018-12-03T15:59:55.260Z,12.20
2018-12-03T16:02:23.525Z,12.10
2018-12-03T16:04:51.789Z,12.10
2018-12-03T16:07:20.071Z,12.00
2018-12-03T16:09:48.305Z,11.90
2018-12-03T16:12:16.572Z,11.90
2018-12-03T16:14:44.892Z,11.90
2018-12-03T16:17:13.124Z,11.90
2018-12-03T16:19:41.383Z,11.80
2018-12-03T16:22:09.592Z,11.80
2018-12-03T16:24:38.693Z,11.80
2018-12-03T16:27:06.031Z,11.80
2018-12-03T16:29:34.270Z,11.80
2018-12-03T16:32:02.470Z,11.80
2018-12-03T16:34:30.646Z,11.80
2018-12-03T16:36:58.934Z,11.70
2018-12-03T16:39:27.246Z,11.70
2018-12-03T16:41:55.460Z,11.70
2018-12-03T16:44:23.709Z,11.70
2018-12-03T16:46:51.946Z,11.60
2018-12-03T16:49:20.158Z,11.50
2018-12-03T16:51:48.428Z,11.60
2018-12-03T16:54:16.733Z,11.60
2018-12-03T16:56:44.953Z,11.50
2018-12-03T16:59:13.204Z,11.60
2018-12-03T17:01:41.466Z,11.60
2018-12-03T17:04:09.678Z,11.60
2018-12-03T17:06:37.934Z,11.60
2018-12-03T17:09:08.546Z,11.50
2018-12-03T17:11:36.688Z,11.40
2018-12-03T17:14:05.135Z,11.40
2018-12-03T17:16:33.428Z,11.40
2018-12-03T17:19:01.782Z,11.50
2018-12-03T17:21:41.860Z,11.40
2018-12-03T17:24:12.521Z,11.40
2018-12-03T17:26:41.740Z,11.50
2018-12-03T17:29:10.220Z,11.50
2018-12-03T17:31:38.577Z,11.50
2018-12-03T17:34:06.803Z,11.50
2018-12-03T17:36:35.006Z,11.40
2018-12-03T17:39:04.398Z,11.40
2018-12-03T17:41:31.658Z,11.40
2018-12-03T17:43:59.860Z,11.50
2018-12-03T17:46:28.073Z,11.50
2018-12-03T17:48:56.279Z,11.50
2018-12-03T17:51:24.454Z,11.50
2018-12-03T17:53:52.753Z,11.50
2018-12-03T17:56:20.916Z,11.60
2018-12-03T17:59:35.408Z,11.60
2018-12-03T18:02:03.867Z,11.60
2018-12-03T18:04:32.036Z,11.60
2018-12-03T18:07:00.308Z,11.60
2018-12-03T18:09:28.502Z,11.70
2018-12-03T18:11:57.034Z,11.70
2018-12-03T18:14:25.221Z,11.70
2018-12-03T18:16:59.733Z,11.70
2018-12-03T18:19:31.826Z,11.60
2018-12-03T18:22:00.350Z,11.60
2018-12-03T18:24:35.362Z,11.50
2018-12-03T18:27:07.264Z,11.50
2018-12-03T18:29:39.132Z,11.50
2018-12-03T18:32:07.491Z,11.40
2018-12-03T18:34:39.508Z,11.40
2018-12-03T18:37:20.467Z,11.30
2018-12-03T18:39:52.415Z,11.30
2018-12-03T18:42:24.191Z,11.20
2018-12-03T18:45:11.047Z,11.20
2018-12-03T18:47:55.601Z,11.10
2018-12-03T18:50:32.299Z,11.00
2018-12-03T18:53:15.517Z,10.90
2018-12-03T18:58:55.389Z,10.90
2018-12-03T19:01:27.292Z,10.80
2018-12-03T19:03:59.013Z,10.90
2018-12-03T19:06:32.139Z,10.80
2018-12-03T19:09:08.164Z,10.80
2018-12-03T19:11:39.747Z,10.80
2018-12-03T19:14:14.809Z,10.70
2018-12-03T19:16:48.827Z,10.70
2018-12-03T19:19:27.132Z,10.70
2018-12-03T19:21:59.216Z,10.60
2018-12-03T19:24:33.447Z,10.60
2018-12-03T19:27:05.005Z,10.60
2018-12-03T19:29:38.970Z,10.60
2018-12-03T19:32:10.906Z,10.60
2018-12-03T19:34:46.960Z,10.60
2018-12-03T19:37:21.108Z,10.60
2018-12-03T19:39:55.462Z,10.60
2018-12-03T19:42:33.788Z,10.60
2018-12-03T19:45:08.377Z,10.60
2018-12-03T19:47:36.650Z,10.50
2018-12-03T19:50:06.322Z,10.60
2018-12-03T19:52:34.532Z,10.50
2018-12-03T19:55:03.320Z,10.50
2018-12-03T19:57:35.480Z,10.50
2018-12-03T20:00:19.782Z,10.40
2018-12-03T20:02:49.799Z,10.50
2018-12-03T20:05:21.745Z,10.40
2018-12-03T20:07:50.105Z,10.40
2018-12-03T20:10:18.408Z,10.50
2018-12-03T20:12:46.744Z,10.50
2018-12-03T20:15:14.992Z,10.60
2018-12-03T20:17:43.707Z,10.60
2018-12-03T20:20:15.995Z,10.60
2018-12-03T20:22:50.226Z,10.60
2018-12-03T20:25:21.151Z,10.60
2018-12-03T20:28:56.473Z,10.50
2018-12-03T20:32:09.940Z,10.50
2018-12-03T20:34:47.668Z,10.30
2018-12-03T20:37:27.945Z,10.40
2018-12-03T20:40:24.617Z,10.40
2018-12-03T20:42:58.613Z,10.40
2018-12-03T20:45:37.025Z,10.40
2018-12-03T20:48:05.861Z,10.50
2018-12-03T20:50:41.101Z,10.50
2018-12-03T20:53:08.480Z,10.50
2018-12-03T20:55:40.715Z,10.50
2018-12-03T20:58:09.047Z,10.50
2018-12-03T21:00:37.321Z,10.50
2018-12-03T21:03:05.717Z,10.50
2018-12-03T21:05:34.000Z,10.50
2018-12-03T21:08:02.225Z,10.50
2018-12-03T21:10:37.073Z,10.50
2018-12-03T21:16:02.204Z,10.60
2018-12-03T21:18:31.311Z,10.50
2018-12-03T21:20:59.831Z,10.50
2018-12-03T21:23:28.021Z,10.50
2018-12-03T21:25:56.248Z,10.40
2018-12-03T21:28:25.367Z,10.40
2018-12-03T21:30:57.050Z,10.40
2018-12-03T21:33:25.275Z,10.40
2018-12-03T21:35:53.452Z,10.30
2018-12-03T21:38:21.655Z,10.40
2018-12-03T21:40:49.915Z,10.40
2018-12-03T21:43:19.754Z,10.40
2018-12-03T21:45:48.032Z,10.40
2018-12-03T21:48:16.405Z,10.40
2018-12-03T21:50:44.704Z,10.40
2018-12-03T21:53:13.038Z,10.30
2018-12-03T21:55:41.397Z,10.20
2018-12-03T21:58:09.665Z,10.30
2018-12-03T22:00:38.061Z,10.30
2018-12-03T22:03:06.385Z,10.30
2018-12-03T22:05:34.763Z,10.30
2018-12-03T22:08:03.198Z,10.20
2018-12-03T22:10:31.506Z,10.20
2018-12-03T22:12:59.801Z,10.20
2018-12-03T22:15:28.077Z,10.10
2018-12-03T22:17:56.322Z,10.10
2018-12-03T22:20:34.783Z,10.10
2018-12-03T22:23:03.063Z,10.10
2018-12-03T22:25:37.944Z,10.10
2018-12-03T22:28:12.677Z,10.10
2018-12-03T22:30:55.080Z,10.20
2018-12-03T22:36:31.623Z,10.20
2018-12-03T22:39:19.505Z,10.20
2018-12-03T22:41:54.370Z,10.20
2018-12-03T22:44:28.138Z,10.10
2018-12-03T22:47:03.009Z,10.10
2018-12-03T22:49:39.310Z,10.10
2018-12-03T22:52:21.558Z,10.10
2018-12-03T22:54:55.848Z,10.00
2018-12-03T22:57:28.510Z,10.00
2018-12-03T23:00:03.909Z,9.90
2018-12-03T23:02:38.749Z,9.80
2018-12-03T23:05:11.011Z,9.90
2018-12-03T23:07:42.709Z,9.90
2018-12-03T23:10:17.076Z,9.90
2018-12-03T23:12:49.737Z,9.80
2018-12-03T23:15:27.210Z,9.90
2018-12-03T23:18:01.933Z,9.90
2018-12-03T23:20:36.609Z,9.90
2018-12-03T23:23:11.517Z,9.90
2018-12-03T23:25:43.129Z,9.80
2018-12-03T23:28:18.126Z,9.80
2018-12-03T23:30:49.762Z,9.80
2018-12-03T23:33:19.589Z,9.80
2018-12-03T23:35:58.250Z,9.70
2018-12-03T23:41:30.065Z,9.70
2018-12-03T23:44:05.895Z,9.70
2018-12-03T23:46:38.421Z,9.70
2018-12-03T23:49:13.280Z,9.70
2018-12-03T23:51:50.538Z,9.70
2018-12-03T23:54:25.180Z,9.70
2018-12-03T23:57:00.028Z,9.70
2018-12-03T23:59:34.034Z,9.70
